Lake Harbor, Florida
Current Conditions -  °F | °C
As of 9:35 PM on Saturday 22 Nov 2014 (Local Time) from KOBE Reporting Station
Overcast Overcast  
Wind Chill: 70°   Ceiling: 6500
Heat Index: 70°   Visibility: 10mi
Dew Point: 68°   Wind: 8mph
Humidity: 94%   Direction: 100°E
Pressure: 30.12"   Gusts: NA
Location:  26.7°N, 80.81°W
Report Text: KOBE 230235Z AUTO 10007KT 10SM OVC065 21/20 A3012 RMK AO2
Loading
Personal Weather Stations






























Interactive Weather Map New forecast layout! Learn more

10-Day Weather Forecast

Advertisements
Track Severe Weather on mobile